Memphis, Tennessee
Current Conditions -  °F | °C
As of 10:54 PM on Friday 19 Dec 2014 (Local Time) from KMEM Reporting Station
Scattered Clouds Scattered Clouds  
Wind Chill: 36°   Ceiling: Unl
Heat Index: 40°   Visibility: 10mi
Dew Point: 32°   Wind: 6mph
Humidity: 73%   Direction: 50°NE
Pressure: 30.23"   Gusts: NA
Location:  35.15°N, 90.05°W
Report Text: KMEM 200454Z 05005KT 10SM SCT110 04/00 A3023 RMK AO2 SLP239 T00440000 $
Loading
Personal Weather Stations






























Interactive Weather Map New forecast layout! Learn more

10-Day Weather Forecast

Advertisements
Track Severe Weather on mobile